sensor_id;sensor_type;location;lat;lon;timestamp;P1;durP1;ratioP1;P2;durP2;ratioP2
64710;SDS011;51139;45.626;6.850;2022-08-19T00:00:04;0.70;;;0.70;;
64710;SDS011;51139;45.626;6.850;2022-08-19T00:02:34;1.73;;;0.60;;
64710;SDS011;51139;45.626;6.850;2022-08-19T00:05:00;1.38;;;0.75;;
64710;SDS011;51139;45.626;6.850;2022-08-19T00:07:28;0.88;;;0.60;;
64710;SDS011;51139;45.626;6.850;2022-08-19T00:09:54;2.00;;;0.80;;
64710;SDS011;51139;45.626;6.850;2022-08-19T00:12:19;1.20;;;0.70;;
64710;SDS011;51139;45.626;6.850;2022-08-19T00:14:45;0.55;;;0.50;;
64710;SDS011;51139;45.626;6.850;2022-08-19T00:17:10;0.98;;;0.60;;
64710;SDS011;51139;45.626;6.850;2022-08-19T00:19:36;0.70;;;0.70;;
64710;SDS011;51139;45.626;6.850;2022-08-19T00:22:02;0.82;;;0.55;;
64710;SDS011;51139;45.626;6.850;2022-08-19T00:24:28;1.35;;;0.75;;
64710;SDS011;51139;45.626;6.850;2022-08-19T00:26:54;1.02;;;0.63;;
64710;SDS011;51139;45.626;6.850;2022-08-19T00:29:22;1.30;;;0.90;;
64710;SDS011;51139;45.626;6.850;2022-08-19T00:31:49;0.57;;;0.57;;
64710;SDS011;51139;45.626;6.850;2022-08-19T00:34:20;0.82;;;0.70;;
64710;SDS011;51139;45.626;6.850;2022-08-19T00:36:46;1.23;;;0.77;;
64710;SDS011;51139;45.626;6.850;2022-08-19T00:39:12;1.10;;;0.80;;
64710;SDS011;51139;45.626;6.850;2022-08-19T00:41:38;1.30;;;0.90;;
64710;SDS011;51139;45.626;6.850;2022-08-19T00:46:32;1.27;;;0.88;;
64710;SDS011;51139;45.626;6.850;2022-08-19T00:49:02;1.30;;;1.08;;
64710;SDS011;51139;45.626;6.850;2022-08-19T00:51:42;2.20;;;1.60;;
64710;SDS011;51139;45.626;6.850;2022-08-19T00:54:11;1.40;;;1.20;;
64710;SDS011;51139;45.626;6.850;2022-08-19T00:56:38;1.20;;;1.10;;
64710;SDS011;51139;45.626;6.850;2022-08-19T00:59:06;0.85;;;0.70;;
64710;SDS011;51139;45.626;6.850;2022-08-19T01:01:37;1.60;;;0.80;;
64710;SDS011;51139;45.626;6.850;2022-08-19T01:04:05;1.02;;;0.68;;
64710;SDS011;51139;45.626;6.850;2022-08-19T01:06:31;1.70;;;0.60;;
64710;SDS011;51139;45.626;6.850;2022-08-19T01:08:59;1.17;;;0.50;;
64710;SDS011;51139;45.626;6.850;2022-08-19T01:11:25;1.05;;;0.60;;
64710;SDS011;51139;45.626;6.850;2022-08-19T01:13:52;0.60;;;0.57;;
64710;SDS011;51139;45.626;6.850;2022-08-19T01:16:19;0.93;;;0.60;;
64710;SDS011;51139;45.626;6.850;2022-08-19T01:18:47;0.60;;;0.50;;
64710;SDS011;51139;45.626;6.850;2022-08-19T01:23:48;0.93;;;0.70;;
64710;SDS011;51139;45.626;6.850;2022-08-19T01:26:15;1.83;;;0.98;;
64710;SDS011;51139;45.626;6.850;2022-08-19T01:28:43;0.85;;;0.50;;
64710;SDS011;51139;45.626;6.850;2022-08-19T01:31:15;0.90;;;0.55;;
64710;SDS011;51139;45.626;6.850;2022-08-19T01:33:43;0.95;;;0.60;;
64710;SDS011;51139;45.626;6.850;2022-08-19T01:36:11;0.88;;;0.65;;
64710;SDS011;51139;45.626;6.850;2022-08-19T01:38:39;1.63;;;0.70;;
64710;SDS011;51139;45.626;6.850;2022-08-19T01:41:07;1.25;;;0.80;;
64710;SDS011;51139;45.626;6.850;2022-08-19T01:43:33;11.57;;;1.30;;
64710;SDS011;51139;45.626;6.850;2022-08-19T01:45:58;0.73;;;0.68;;
64710;SDS011;51139;45.626;6.850;2022-08-19T01:48:24;6.50;;;1.23;;
64710;SDS011;51139;45.626;6.850;2022-08-19T01:50:49;1.77;;;1.17;;
64710;SDS011;51139;45.626;6.850;2022-08-19T01:53:15;1.25;;;1.00;;
64710;SDS011;51139;45.626;6.850;2022-08-19T01:55:41;4.38;;;1.30;;
64710;SDS011;51139;45.626;6.850;2022-08-19T01:58:09;106.90;;;4.72;;
64710;SDS011;51139;45.626;6.850;2022-08-19T02:00:39;168.63;;;7.60;;
64710;SDS011;51139;45.626;6.850;2022-08-19T02:03:05;238.93;;;10.70;;
64710;SDS011;51139;45.626;6.850;2022-08-19T02:05:31;211.15;;;9.05;;
64710;SDS011;51139;45.626;6.850;2022-08-19T02:07:57;212.35;;;9.50;;
64710;SDS011;51139;45.626;6.850;2022-08-19T02:10:23;297.05;;;14.02;;
64710;SDS011;51139;45.626;6.850;2022-08-19T02:12:49;8.10;;;1.67;;
64710;SDS011;51139;45.626;6.850;2022-08-19T02:15:16;1.52;;;1.10;;
64710;SDS011;51139;45.626;6.850;2022-08-19T02:17:43;1.92;;;1.30;;
64710;SDS011;51139;45.626;6.850;2022-08-19T02:20:09;1.20;;;0.85;;
64710;SDS011;51139;45.626;6.850;2022-08-19T02:22:35;2.90;;;1.13;;
64710;SDS011;51139;45.626;6.850;2022-08-19T02:25:01;1.63;;;0.93;;
64710;SDS011;51139;45.626;6.850;2022-08-19T02:27:26;0.98;;;0.80;;
64710;SDS011;51139;45.626;6.850;2022-08-19T02:29:52;1.58;;;1.00;;
64710;SDS011;51139;45.626;6.850;2022-08-19T02:32:18;2.08;;;0.90;;
64710;SDS011;51139;45.626;6.850;2022-08-19T02:34:44;1.05;;;0.90;;
64710;SDS011;51139;45.626;6.850;2022-08-19T02:37:11;1.00;;;0.70;;
64710;SDS011;51139;45.626;6.850;2022-08-19T02:39:56;0.80;;;0.60;;
64710;SDS011;51139;45.626;6.850;2022-08-19T02:42:22;1.50;;;0.88;;
64710;SDS011;51139;45.626;6.850;2022-08-19T02:44:48;0.88;;;0.75;;
64710;SDS011;51139;45.626;6.850;2022-08-19T02:47:14;1.05;;;0.70;;
64710;SDS011;51139;45.626;6.850;2022-08-19T02:49:40;1.10;;;0.98;;
64710;SDS011;51139;45.626;6.850;2022-08-19T02:52:05;1.83;;;1.00;;
64710;SDS011;51139;45.626;6.850;2022-08-19T02:54:31;2.05;;;0.80;;
64710;SDS011;51139;45.626;6.850;2022-08-19T02:56:56;1.35;;;0.90;;
64710;SDS011;51139;45.626;6.850;2022-08-19T02:59:22;1.08;;;0.80;;
64710;SDS011;51139;45.626;6.850;2022-08-19T03:01:47;1.92;;;0.90;;
64710;SDS011;51139;45.626;6.850;2022-08-19T03:04:13;3.22;;;1.15;;
64710;SDS011;51139;45.626;6.850;2022-08-19T03:06:42;1.00;;;0.88;;
64710;SDS011;51139;45.626;6.850;2022-08-19T03:09:09;2.05;;;1.13;;
64710;SDS011;51139;45.626;6.850;2022-08-19T03:11:36;1.20;;;0.80;;
64710;SDS011;51139;45.626;6.850;2022-08-19T03:14:03;1.50;;;0.80;;
64710;SDS011;51139;45.626;6.850;2022-08-19T03:16:31;0.70;;;0.60;;
64710;SDS011;51139;45.626;6.850;2022-08-19T03:18:59;1.35;;;0.80;;
64710;SDS011;51139;45.626;6.850;2022-08-19T03:21:26;1.30;;;1.10;;
64710;SDS011;51139;45.626;6.850;2022-08-19T03:23:55;1.40;;;0.90;;
64710;SDS011;51139;45.626;6.850;2022-08-19T03:26:22;1.25;;;0.77;;
64710;SDS011;51139;45.626;6.850;2022-08-19T03:28:48;1.15;;;0.77;;
64710;SDS011;51139;45.626;6.850;2022-08-19T03:31:15;1.17;;;0.70;;
64710;SDS011;51139;45.626;6.850;2022-08-19T03:33:43;0.90;;;0.70;;
64710;SDS011;51139;45.626;6.850;2022-08-19T03:36:11;1.25;;;0.70;;
64710;SDS011;51139;45.626;6.850;2022-08-19T03:38:48;1.13;;;0.80;;
64710;SDS011;51139;45.626;6.850;2022-08-19T03:41:16;1.70;;;0.70;;
64710;SDS011;51139;45.626;6.850;2022-08-19T03:43:44;1.42;;;0.80;;
64710;SDS011;51139;45.626;6.850;2022-08-19T03:46:15;1.75;;;0.80;;
64710;SDS011;51139;45.626;6.850;2022-08-19T03:48:43;1.23;;;0.70;;
64710;SDS011;51139;45.626;6.850;2022-08-19T03:51:19;1.13;;;0.68;;
64710;SDS011;51139;45.626;6.850;2022-08-19T03:53:50;1.48;;;0.88;;
64710;SDS011;51139;45.626;6.850;2022-08-19T03:56:16;1.15;;;0.65;;
64710;SDS011;51139;45.626;6.850;2022-08-19T03:58:42;0.80;;;0.70;;
64710;SDS011;51139;45.626;6.850;2022-08-19T04:01:08;1.45;;;0.70;;
64710;SDS011;51139;45.626;6.850;2022-08-19T04:03:36;0.60;;;0.60;;
64710;SDS011;51139;45.626;6.850;2022-08-19T04:06:11;1.38;;;0.90;;
64710;SDS011;51139;45.626;6.850;2022-08-19T04:08:39;1.33;;;0.60;;
64710;SDS011;51139;45.626;6.850;2022-08-19T04:11:09;1.80;;;0.80;;
64710;SDS011;51139;45.626;6.850;2022-08-19T04:13:37;29.17;;;2.13;;
64710;SDS011;51139;45.626;6.850;2022-08-19T04:16:04;206.43;;;6.97;;
64710;SDS011;51139;45.626;6.850;2022-08-19T04:18:30;197.60;;;7.03;;
64710;SDS011;51139;45.626;6.850;2022-08-19T04:20:58;11.27;;;1.35;;
64710;SDS011;51139;45.626;6.850;2022-08-19T04:23:24;242.35;;;10.63;;
64710;SDS011;51139;45.626;6.850;2022-08-19T04:25:49;215.45;;;8.45;;
64710;SDS011;51139;45.626;6.850;2022-08-19T04:28:15;225.43;;;9.27;;
64710;SDS011;51139;45.626;6.850;2022-08-19T04:30:45;200.90;;;8.07;;
64710;SDS011;51139;45.626;6.850;2022-08-19T04:33:16;95.13;;;4.53;;
64710;SDS011;51139;45.626;6.850;2022-08-19T04:35:45;79.68;;;3.75;;
64710;SDS011;51139;45.626;6.850;2022-08-19T04:38:13;11.07;;;1.30;;
64710;SDS011;51139;45.626;6.850;2022-08-19T04:40:41;22.13;;;2.03;;
64710;SDS011;51139;45.626;6.850;2022-08-19T04:43:29;74.00;;;4.20;;
64710;SDS011;51139;45.626;6.850;2022-08-19T04:45:55;32.50;;;2.13;;
64710;SDS011;51139;45.626;6.850;2022-08-19T04:48:21;3.80;;;1.20;;
64710;SDS011;51139;45.626;6.850;2022-08-19T04:50:51;3.83;;;1.00;;
64710;SDS011;51139;45.626;6.850;2022-08-19T04:53:22;87.20;;;4.85;;
64710;SDS011;51139;45.626;6.850;2022-08-19T04:55:59;4.50;;;1.50;;
64710;SDS011;51139;45.626;6.850;2022-08-19T04:58:28;78.55;;;3.90;;
64710;SDS011;51139;45.626;6.850;2022-08-19T05:00:54;50.33;;;2.75;;
64710;SDS011;51139;45.626;6.850;2022-08-19T05:03:19;68.72;;;3.53;;
64710;SDS011;51139;45.626;6.850;2022-08-19T05:05:46;202.20;;;8.10;;
64710;SDS011;51139;45.626;6.850;2022-08-19T05:08:14;184.52;;;7.28;;
64710;SDS011;51139;45.626;6.850;2022-08-19T05:10:50;217.77;;;9.10;;
64710;SDS011;51139;45.626;6.850;2022-08-19T05:13:17;163.55;;;6.57;;
64710;SDS011;51139;45.626;6.850;2022-08-19T05:15:44;157.90;;;6.80;;
64710;SDS011;51139;45.626;6.850;2022-08-19T05:18:18;124.82;;;4.78;;
64710;SDS011;51139;45.626;6.850;2022-08-19T05:21:09;131.63;;;5.68;;
64710;SDS011;51139;45.626;6.850;2022-08-19T05:23:54;101.20;;;5.10;;
64710;SDS011;51139;45.626;6.850;2022-08-19T05:26:20;159.65;;;6.97;;
64710;SDS011;51139;45.626;6.850;2022-08-19T05:28:47;292.52;;;11.57;;
64710;SDS011;51139;45.626;6.850;2022-08-19T05:31:12;108.47;;;5.20;;
64710;SDS011;51139;45.626;6.850;2022-08-19T05:33:38;239.73;;;9.40;;
64710;SDS011;51139;45.626;6.850;2022-08-19T05:36:04;118.15;;;4.45;;
64710;SDS011;51139;45.626;6.850;2022-08-19T05:38:32;116.18;;;5.30;;
64710;SDS011;51139;45.626;6.850;2022-08-19T05:40:58;146.40;;;5.70;;
64710;SDS011;51139;45.626;6.850;2022-08-19T05:43:23;161.13;;;6.22;;
64710;SDS011;51139;45.626;6.850;2022-08-19T05:45:48;50.25;;;1.90;;
64710;SDS011;51139;45.626;6.850;2022-08-19T05:48:15;149.70;;;6.18;;
64710;SDS011;51139;45.626;6.850;2022-08-19T05:50:45;117.83;;;5.00;;
64710;SDS011;51139;45.626;6.850;2022-08-19T05:53:12;193.00;;;17.35;;
64710;SDS011;51139;45.626;6.850;2022-08-19T05:55:37;196.30;;;12.10;;
64710;SDS011;51139;45.626;6.850;2022-08-19T05:58:03;130.35;;;5.30;;
64710;SDS011;51139;45.626;6.850;2022-08-19T06:00:32;67.03;;;3.70;;
64710;SDS011;51139;45.626;6.850;2022-08-19T06:02:58;103.63;;;4.88;;
64710;SDS011;51139;45.626;6.850;2022-08-19T06:05:27;83.03;;;3.92;;
64710;SDS011;51139;45.626;6.850;2022-08-19T06:07:53;14.02;;;1.50;;
64710;SDS011;51139;45.626;6.850;2022-08-19T06:10:19;14.75;;;1.90;;
64710;SDS011;51139;45.626;6.850;2022-08-19T06:12:46;3.35;;;1.52;;
64710;SDS011;51139;45.626;6.850;2022-08-19T06:15:13;1.67;;;1.40;;
64710;SDS011;51139;45.626;6.850;2022-08-19T06:17:39;1.83;;;1.15;;
64710;SDS011;51139;45.626;6.850;2022-08-19T06:20:09;150.13;;;6.80;;
64710;SDS011;51139;45.626;6.850;2022-08-19T06:22:42;32.03;;;1.90;;
64710;SDS011;51139;45.626;6.850;2022-08-19T06:25:09;26.30;;;12.95;;
64710;SDS011;51139;45.626;6.850;2022-08-19T06:27:36;10.45;;;7.95;;
64710;SDS011;51139;45.626;6.850;2022-08-19T06:30:03;10.65;;;2.90;;
64710;SDS011;51139;45.626;6.850;2022-08-19T06:32:29;61.83;;;5.18;;
64710;SDS011;51139;45.626;6.850;2022-08-19T06:34:55;35.03;;;2.58;;
64710;SDS011;51139;45.626;6.850;2022-08-19T06:37:20;22.73;;;1.83;;
64710;SDS011;51139;45.626;6.850;2022-08-19T06:39:46;7.32;;;1.20;;
64710;SDS011;51139;45.626;6.850;2022-08-19T06:42:12;9.27;;;1.23;;
64710;SDS011;51139;45.626;6.850;2022-08-19T06:44:41;1.23;;;0.80;;
64710;SDS011;51139;45.626;6.850;2022-08-19T06:47:08;0.70;;;0.70;;
64710;SDS011;51139;45.626;6.850;2022-08-19T06:49:36;68.63;;;3.33;;
64710;SDS011;51139;45.626;6.850;2022-08-19T06:52:02;2.65;;;0.70;;
64710;SDS011;51139;45.626;6.850;2022-08-19T06:54:28;2.97;;;0.90;;
64710;SDS011;51139;45.626;6.850;2022-08-19T06:56:55;1.00;;;0.80;;
64710;SDS011;51139;45.626;6.850;2022-08-19T06:59:22;3.97;;;2.25;;
64710;SDS011;51139;45.626;6.850;2022-08-19T07:01:52;0.80;;;0.70;;
64710;SDS011;51139;45.626;6.850;2022-08-19T07:04:21;0.47;;;0.47;;
64710;SDS011;51139;45.626;6.850;2022-08-19T07:06:49;0.82;;;0.60;;
64710;SDS011;51139;45.626;6.850;2022-08-19T07:09:15;0.50;;;0.50;;
64710;SDS011;51139;45.626;6.850;2022-08-19T07:11:46;1.05;;;0.45;;
64710;SDS011;51139;45.626;6.850;2022-08-19T07:14:14;0.73;;;0.52;;
64710;SDS011;51139;45.626;6.850;2022-08-19T07:16:43;0.40;;;0.40;;
64710;SDS011;51139;45.626;6.850;2022-08-19T07:19:10;0.50;;;0.50;;
64710;SDS011;51139;45.626;6.850;2022-08-19T07:21:37;0.55;;;0.40;;
64710;SDS011;51139;45.626;6.850;2022-08-19T07:24:04;0.45;;;0.40;;
64710;SDS011;51139;45.626;6.850;2022-08-19T07:26:31;0.40;;;0.40;;
64710;SDS011;51139;45.626;6.850;2022-08-19T07:29:03;0.40;;;0.40;;
64710;SDS011;51139;45.626;6.850;2022-08-19T07:31:30;0.40;;;0.40;;
64710;SDS011;51139;45.626;6.850;2022-08-19T07:33:56;0.40;;;0.40;;
64710;SDS011;51139;45.626;6.850;2022-08-19T07:36:26;0.25;;;0.25;;
64710;SDS011;51139;45.626;6.850;2022-08-19T07:38:56;0.80;;;0.50;;
64710;SDS011;51139;45.626;6.850;2022-08-19T07:41:22;0.40;;;0.40;;
64710;SDS011;51139;45.626;6.850;2022-08-19T07:43:49;0.77;;;0.43;;
64710;SDS011;51139;45.626;6.850;2022-08-19T07:46:15;0.30;;;0.25;;
64710;SDS011;51139;45.626;6.850;2022-08-19T07:48:45;0.43;;;0.33;;
64710;SDS011;51139;45.626;6.850;2022-08-19T07:51:13;0.38;;;0.35;;
64710;SDS011;51139;45.626;6.850;2022-08-19T07:53:40;0.38;;;0.22;;
64710;SDS011;51139;45.626;6.850;2022-08-19T07:56:06;0.65;;;0.30;;
64710;SDS011;51139;45.626;6.850;2022-08-19T07:58:33;1.27;;;0.50;;
64710;SDS011;51139;45.626;6.850;2022-08-19T08:01:01;19.08;;;15.43;;
64710;SDS011;51139;45.626;6.850;2022-08-19T08:03:28;1.25;;;1.10;;
64710;SDS011;51139;45.626;6.850;2022-08-19T08:06:12;0.60;;;0.32;;
64710;SDS011;51139;45.626;6.850;2022-08-19T08:08:58;0.35;;;0.30;;
64710;SDS011;51139;45.626;6.850;2022-08-19T08:11:35;0.30;;;0.30;;
64710;SDS011;51139;45.626;6.850;2022-08-19T08:14:01;0.63;;;0.40;;
64710;SDS011;51139;45.626;6.850;2022-08-19T08:16:26;0.50;;;0.40;;
64710;SDS011;51139;45.626;6.850;2022-08-19T08:18:56;0.40;;;0.30;;
64710;SDS011;51139;45.626;6.850;2022-08-19T08:21:22;0.40;;;0.35;;
64710;SDS011;51139;45.626;6.850;2022-08-19T08:23:47;0.45;;;0.40;;
64710;SDS011;51139;45.626;6.850;2022-08-19T08:26:13;0.30;;;0.30;;
64710;SDS011;51139;45.626;6.850;2022-08-19T08:28:39;0.75;;;0.38;;
64710;SDS011;51139;45.626;6.850;2022-08-19T08:31:05;0.60;;;0.52;;
64710;SDS011;51139;45.626;6.850;2022-08-19T08:33:30;0.65;;;0.30;;
64710;SDS011;51139;45.626;6.850;2022-08-19T08:35:56;11.73;;;1.23;;
64710;SDS011;51139;45.626;6.850;2022-08-19T08:38:21;25.08;;;1.83;;
64710;SDS011;51139;45.626;6.850;2022-08-19T08:40:48;1.60;;;1.50;;
64710;SDS011;51139;45.626;6.850;2022-08-19T08:43:28;4.07;;;3.00;;
64710;SDS011;51139;45.626;6.850;2022-08-19T08:46:16;21.50;;;4.45;;
64710;SDS011;51139;45.626;6.850;2022-08-19T08:49:09;71.85;;;3.30;;
64710;SDS011;51139;45.626;6.850;2022-08-19T08:52:00;124.72;;;5.60;;
64710;SDS011;51139;45.626;6.850;2022-08-19T08:54:32;32.60;;;1.70;;
64710;SDS011;51139;45.626;6.850;2022-08-19T08:57:14;13.95;;;8.57;;
64710;SDS011;51139;45.626;6.850;2022-08-19T08:59:45;12.05;;;2.75;;
64710;SDS011;51139;45.626;6.850;2022-08-19T09:02:17;6.93;;;1.60;;
64710;SDS011;51139;45.626;6.850;2022-08-19T09:04:43;9.50;;;3.22;;
64710;SDS011;51139;45.626;6.850;2022-08-19T09:13:24;44.13;;;2.88;;
64710;SDS011;51139;45.626;6.850;2022-08-19T09:16:02;3.83;;;1.70;;
64710;SDS011;51139;45.626;6.850;2022-08-19T09:21:12;35.78;;;2.97;;
64710;SDS011;51139;45.626;6.850;2022-08-19T09:23:38;9.85;;;2.33;;
64710;SDS011;51139;45.626;6.850;2022-08-19T09:26:08;17.27;;;3.25;;
64710;SDS011;51139;45.626;6.850;2022-08-19T09:28:34;2.20;;;1.60;;
64710;SDS011;51139;45.626;6.850;2022-08-19T09:31:01;14.38;;;2.80;;
64710;SDS011;51139;45.626;6.850;2022-08-19T09:33:27;16.70;;;3.17;;
64710;SDS011;51139;45.626;6.850;2022-08-19T09:36:01;2.67;;;1.95;;
64710;SDS011;51139;45.626;6.850;2022-08-19T09:38:32;21.08;;;2.15;;
64710;SDS011;51139;45.626;6.850;2022-08-19T09:41:01;15.82;;;2.83;;
64710;SDS011;51139;45.626;6.850;2022-08-19T09:43:32;46.85;;;3.38;;
64710;SDS011;51139;45.626;6.850;2022-08-19T09:45:58;2.72;;;1.48;;
64710;SDS011;51139;45.626;6.850;2022-08-19T09:48:25;8.63;;;1.65;;
64710;SDS011;51139;45.626;6.850;2022-08-19T09:50:51;5.97;;;1.73;;
64710;SDS011;51139;45.626;6.850;2022-08-19T09:53:16;61.88;;;4.03;;
64710;SDS011;51139;45.626;6.850;2022-08-19T09:55:42;32.20;;;3.28;;
64710;SDS011;51139;45.626;6.850;2022-08-19T09:58:08;111.68;;;6.07;;
64710;SDS011;51139;45.626;6.850;2022-08-19T10:00:34;21.60;;;2.53;;
64710;SDS011;51139;45.626;6.850;2022-08-19T10:02:59;7.40;;;1.77;;
64710;SDS011;51139;45.626;6.850;2022-08-19T10:08:00;1.90;;;1.48;;
64710;SDS011;51139;45.626;6.850;2022-08-19T10:10:26;2.30;;;1.20;;
64710;SDS011;51139;45.626;6.850;2022-08-19T10:12:52;60.35;;;4.05;;
64710;SDS011;51139;45.626;6.850;2022-08-19T10:15:17;10.77;;;1.65;;
64710;SDS011;51139;45.626;6.850;2022-08-19T10:17:45;1.70;;;1.40;;
64710;SDS011;51139;45.626;6.850;2022-08-19T10:20:11;9.57;;;2.13;;
64710;SDS011;51139;45.626;6.850;2022-08-19T10:22:37;40.20;;;3.80;;
64710;SDS011;51139;45.626;6.850;2022-08-19T10:25:03;11.65;;;2.45;;
64710;SDS011;51139;45.626;6.850;2022-08-19T10:27:29;55.35;;;4.43;;
64710;SDS011;51139;45.626;6.850;2022-08-19T10:29:55;2.50;;;2.05;;
64710;SDS011;51139;45.626;6.850;2022-08-19T10:32:22;2.38;;;1.88;;
64710;SDS011;51139;45.626;6.850;2022-08-19T10:34:48;3.33;;;2.08;;
64710;SDS011;51139;45.626;6.850;2022-08-19T10:37:15;4.65;;;2.53;;
64710;SDS011;51139;45.626;6.850;2022-08-19T10:39:42;2.97;;;2.10;;
64710;SDS011;51139;45.626;6.850;2022-08-19T10:42:12;6.47;;;5.13;;
64710;SDS011;51139;45.626;6.850;2022-08-19T10:44:39;2.70;;;2.30;;
64710;SDS011;51139;45.626;6.850;2022-08-19T10:47:04;2.80;;;2.20;;
64710;SDS011;51139;45.626;6.850;2022-08-19T10:49:31;2.50;;;2.08;;
64710;SDS011;51139;45.626;6.850;2022-08-19T10:52:17;5.15;;;3.28;;
64710;SDS011;51139;45.626;6.850;2022-08-19T10:55:02;3.47;;;3.00;;
64710;SDS011;51139;45.626;6.850;2022-08-19T10:57:47;3.42;;;3.05;;
64710;SDS011;51139;45.626;6.850;2022-08-19T11:00:12;6.68;;;5.05;;
64710;SDS011;51139;45.626;6.850;2022-08-19T11:02:38;4.18;;;3.20;;
64710;SDS011;51139;45.626;6.850;2022-08-19T11:05:04;3.83;;;3.05;;
64710;SDS011;51139;45.626;6.850;2022-08-19T11:07:31;3.67;;;3.15;;
64710;SDS011;51139;45.626;6.850;2022-08-19T11:09:57;4.35;;;3.20;;
64710;SDS011;51139;45.626;6.850;2022-08-19T11:12:22;3.75;;;3.42;;
64710;SDS011;51139;45.626;6.850;2022-08-19T11:14:49;3.58;;;3.20;;
64710;SDS011;51139;45.626;6.850;2022-08-19T11:17:14;4.53;;;3.55;;
64710;SDS011;51139;45.626;6.850;2022-08-19T11:19:40;5.88;;;4.30;;
64710;SDS011;51139;45.626;6.850;2022-08-19T11:22:07;4.55;;;2.80;;
64710;SDS011;51139;45.626;6.850;2022-08-19T11:24:34;4.72;;;3.97;;
64710;SDS011;51139;45.626;6.850;2022-08-19T11:27:01;133.18;;;9.93;;
64710;SDS011;51139;45.626;6.850;2022-08-19T11:29:30;13.27;;;4.65;;
64710;SDS011;51139;45.626;6.850;2022-08-19T11:31:56;4.10;;;3.00;;
64710;SDS011;51139;45.626;6.850;2022-08-19T11:34:24;9.02;;;4.70;;
64710;SDS011;51139;45.626;6.850;2022-08-19T11:39:20;7.00;;;5.40;;
64710;SDS011;51139;45.626;6.850;2022-08-19T11:41:47;4.93;;;3.40;;
64710;SDS011;51139;45.626;6.850;2022-08-19T11:44:13;3.35;;;3.03;;
64710;SDS011;51139;45.626;6.850;2022-08-19T11:46:39;2.78;;;2.20;;
64710;SDS011;51139;45.626;6.850;2022-08-19T11:49:10;2.88;;;2.30;;
64710;SDS011;51139;45.626;6.850;2022-08-19T11:51:35;2.35;;;2.05;;
64710;SDS011;51139;45.626;6.850;2022-08-19T11:54:01;3.20;;;2.80;;
64710;SDS011;51139;45.626;6.850;2022-08-19T11:56:28;4.07;;;2.83;;
64710;SDS011;51139;45.626;6.850;2022-08-19T11:58:54;3.67;;;2.83;;
64710;SDS011;51139;45.626;6.850;2022-08-19T12:01:22;2.85;;;2.17;;
64710;SDS011;51139;45.626;6.850;2022-08-19T12:03:50;3.30;;;2.83;;
64710;SDS011;51139;45.626;6.850;2022-08-19T12:06:19;3.45;;;2.47;;
64710;SDS011;51139;45.626;6.850;2022-08-19T12:08:49;4.05;;;2.92;;
64710;SDS011;51139;45.626;6.850;2022-08-19T12:11:14;2.80;;;2.50;;
64710;SDS011;51139;45.626;6.850;2022-08-19T12:13:40;3.30;;;2.70;;
64710;SDS011;51139;45.626;6.850;2022-08-19T12:16:11;4.80;;;4.00;;
64710;SDS011;51139;45.626;6.850;2022-08-19T12:18:40;126.93;;;10.10;;
64710;SDS011;51139;45.626;6.850;2022-08-19T12:21:10;4.18;;;3.38;;
64710;SDS011;51139;45.626;6.850;2022-08-19T12:23:36;21.88;;;5.05;;
64710;SDS011;51139;45.626;6.850;2022-08-19T12:26:02;4.90;;;4.40;;
64710;SDS011;51139;45.626;6.850;2022-08-19T12:28:27;3.70;;;2.92;;
64710;SDS011;51139;45.626;6.850;2022-08-19T12:30:53;3.70;;;3.40;;
64710;SDS011;51139;45.626;6.850;2022-08-19T12:33:20;3.97;;;3.30;;
64710;SDS011;51139;45.626;6.850;2022-08-19T12:35:49;4.60;;;3.53;;
64710;SDS011;51139;45.626;6.850;2022-08-19T12:38:15;5.15;;;3.72;;
64710;SDS011;51139;45.626;6.850;2022-08-19T12:40:40;4.30;;;3.67;;
64710;SDS011;51139;45.626;6.850;2022-08-19T12:43:06;3.78;;;3.15;;
64710;SDS011;51139;45.626;6.850;2022-08-19T12:45:33;3.70;;;3.00;;
64710;SDS011;51139;45.626;6.850;2022-08-19T12:47:59;3.70;;;2.80;;
64710;SDS011;51139;45.626;6.850;2022-08-19T12:50:24;4.20;;;2.47;;
64710;SDS011;51139;45.626;6.850;2022-08-19T12:52:50;4.20;;;2.72;;
64710;SDS011;51139;45.626;6.850;2022-08-19T12:55:15;3.72;;;3.30;;
64710;SDS011;51139;45.626;6.850;2022-08-19T12:57:43;7.40;;;3.47;;
64710;SDS011;51139;45.626;6.850;2022-08-19T13:00:13;5.75;;;4.60;;
64710;SDS011;51139;45.626;6.850;2022-08-19T13:02:43;5.80;;;4.22;;
64710;SDS011;51139;45.626;6.850;2022-08-19T13:05:12;4.93;;;3.65;;
64710;SDS011;51139;45.626;6.850;2022-08-19T13:07:41;5.05;;;3.97;;
64710;SDS011;51139;45.626;6.850;2022-08-19T13:10:11;4.57;;;3.90;;
64710;SDS011;51139;45.626;6.850;2022-08-19T13:12:40;5.40;;;4.63;;
64710;SDS011;51139;45.626;6.850;2022-08-19T13:15:06;12.18;;;10.38;;
64710;SDS011;51139;45.626;6.850;2022-08-19T13:17:33;4.80;;;3.83;;
64710;SDS011;51139;45.626;6.850;2022-08-19T13:19:59;5.32;;;4.20;;
64710;SDS011;51139;45.626;6.850;2022-08-19T13:22:24;5.72;;;3.50;;
64710;SDS011;51139;45.626;6.850;2022-08-19T13:24:50;4.72;;;3.85;;
64710;SDS011;51139;45.626;6.850;2022-08-19T13:27:15;5.15;;;3.92;;
64710;SDS011;51139;45.626;6.850;2022-08-19T13:29:41;4.55;;;3.53;;
64710;SDS011;51139;45.626;6.850;2022-08-19T13:32:25;4.53;;;3.70;;
64710;SDS011;51139;45.626;6.850;2022-08-19T13:35:09;6.15;;;4.30;;
64710;SDS011;51139;45.626;6.850;2022-08-19T13:37:35;5.07;;;3.92;;
64710;SDS011;51139;45.626;6.850;2022-08-19T13:40:13;5.38;;;4.45;;
64710;SDS011;51139;45.626;6.850;2022-08-19T13:42:43;4.40;;;3.80;;
64710;SDS011;51139;45.626;6.850;2022-08-19T13:45:11;4.97;;;3.47;;
64710;SDS011;51139;45.626;6.850;2022-08-19T13:47:39;4.47;;;3.83;;
64710;SDS011;51139;45.626;6.850;2022-08-19T13:50:07;5.25;;;3.97;;
64710;SDS011;51139;45.626;6.850;2022-08-19T13:52:37;4.57;;;3.70;;
64710;SDS011;51139;45.626;6.850;2022-08-19T13:55:03;5.30;;;4.05;;
64710;SDS011;51139;45.626;6.850;2022-08-19T13:57:30;6.70;;;5.22;;
64710;SDS011;51139;45.626;6.850;2022-08-19T13:59:55;6.47;;;5.20;;
64710;SDS011;51139;45.626;6.850;2022-08-19T14:02:22;7.40;;;5.43;;
64710;SDS011;51139;45.626;6.850;2022-08-19T14:04:48;5.13;;;4.20;;
64710;SDS011;51139;45.626;6.850;2022-08-19T14:07:13;5.15;;;4.28;;
64710;SDS011;51139;45.626;6.850;2022-08-19T14:09:39;5.65;;;4.25;;
64710;SDS011;51139;45.626;6.850;2022-08-19T14:12:04;7.22;;;4.75;;
64710;SDS011;51139;45.626;6.850;2022-08-19T14:14:30;7.43;;;5.10;;
64710;SDS011;51139;45.626;6.850;2022-08-19T14:16:55;6.78;;;4.75;;
64710;SDS011;51139;45.626;6.850;2022-08-19T14:19:20;12.60;;;8.75;;
64710;SDS011;51139;45.626;6.850;2022-08-19T14:21:46;6.32;;;4.88;;
64710;SDS011;51139;45.626;6.850;2022-08-19T14:24:11;6.03;;;4.47;;
64710;SDS011;51139;45.626;6.850;2022-08-19T14:26:37;5.78;;;4.68;;
64710;SDS011;51139;45.626;6.850;2022-08-19T14:29:03;6.75;;;4.70;;
64710;SDS011;51139;45.626;6.850;2022-08-19T14:31:28;7.30;;;5.93;;
64710;SDS011;51139;45.626;6.850;2022-08-19T14:33:54;7.78;;;5.60;;
64710;SDS011;51139;45.626;6.850;2022-08-19T14:36:19;11.57;;;10.38;;
64710;SDS011;51139;45.626;6.850;2022-08-19T14:38:46;7.70;;;6.90;;
64710;SDS011;51139;45.626;6.850;2022-08-19T14:41:17;8.63;;;6.05;;
64710;SDS011;51139;45.626;6.850;2022-08-19T14:43:47;7.70;;;6.80;;
64710;SDS011;51139;45.626;6.850;2022-08-19T14:46:18;6.15;;;4.80;;
64710;SDS011;51139;45.626;6.850;2022-08-19T14:48:46;8.82;;;5.75;;
64710;SDS011;51139;45.626;6.850;2022-08-19T14:51:11;7.85;;;6.95;;
64710;SDS011;51139;45.626;6.850;2022-08-19T14:53:38;7.97;;;6.30;;
64710;SDS011;51139;45.626;6.850;2022-08-19T14:56:08;5.35;;;4.20;;
64710;SDS011;51139;45.626;6.850;2022-08-19T14:58:35;5.65;;;4.68;;
64710;SDS011;51139;45.626;6.850;2022-08-19T15:01:01;13.10;;;8.85;;
64710;SDS011;51139;45.626;6.850;2022-08-19T15:03:28;7.43;;;5.72;;
64710;SDS011;51139;45.626;6.850;2022-08-19T15:05:54;9.50;;;7.60;;